createdAt,value
2022-08-11T00:01:05.214Z,17.50
2022-08-11T00:03:43.709Z,17.50
2022-08-11T00:06:14.195Z,17.50
2022-08-11T00:08:42.374Z,17.40
2022-08-11T00:11:10.710Z,17.30
2022-08-11T00:13:41.949Z,17.30
2022-08-11T00:16:20.730Z,17.20
2022-08-11T00:18:52.527Z,17.10
2022-08-11T00:22:03.051Z,17.10
2022-08-11T00:24:08.803Z,17.10
2022-08-11T00:26:36.499Z,17.00
2022-08-11T00:29:12.687Z,17.00
2022-08-11T00:31:46.275Z,16.90
2022-08-11T00:34:14.196Z,16.90
2022-08-11T00:36:50.286Z,16.80
2022-08-11T00:39:20.168Z,16.80
2022-08-11T00:42:07.237Z,16.70
2022-08-11T00:44:58.801Z,16.60
2022-08-11T00:47:31.247Z,16.50
2022-08-11T00:49:57.842Z,16.60
2022-08-11T00:52:48.065Z,16.40
2022-08-11T00:55:55.500Z,16.40
2022-08-11T00:58:41.333Z,16.30
2022-08-11T01:01:21.145Z,16.40
2022-08-11T01:04:20.313Z,16.30
2022-08-11T01:07:00.723Z,16.40
2022-08-11T01:09:54.787Z,16.30
2022-08-11T01:12:45.871Z,16.30
2022-08-11T01:15:43.348Z,16.20
2022-08-11T01:18:53.469Z,16.10
2022-08-11T01:21:37.682Z,16.00
2022-08-11T01:24:32.777Z,16.00
2022-08-11T01:27:36.759Z,16.00
2022-08-11T01:30:24.223Z,15.90
2022-08-11T01:33:04.660Z,15.90
2022-08-11T01:35:52.550Z,16.00
2022-08-11T01:38:55.998Z,15.90
2022-08-11T01:42:01.269Z,15.90
2022-08-11T01:44:49.702Z,15.80
2022-08-11T01:47:52.560Z,15.70
2022-08-11T01:50:48.713Z,15.60
2022-08-11T01:53:53.009Z,15.60
2022-08-11T01:56:42.258Z,15.50
2022-08-11T01:59:20.130Z,15.40
2022-08-11T02:02:04.376Z,15.30
2022-08-11T02:04:39.239Z,15.40
2022-08-11T02:07:11.499Z,15.40
2022-08-11T02:10:22.449Z,15.40
2022-08-11T02:13:00.445Z,15.40
2022-08-11T02:15:39.757Z,15.40
2022-08-11T02:18:55.821Z,15.20
2022-08-11T02:21:48.501Z,15.20
2022-08-11T02:24:24.163Z,15.20
2022-08-11T02:27:00.990Z,15.20
2022-08-11T02:29:46.395Z,15.20
2022-08-11T02:32:51.539Z,15.20
2022-08-11T02:35:27.481Z,15.10
2022-08-11T02:38:32.582Z,15.10
2022-08-11T02:41:45.121Z,15.00
2022-08-11T02:44:32.780Z,15.10
2022-08-11T02:47:27.556Z,15.00
2022-08-11T02:50:16.155Z,14.90
2022-08-11T02:53:02.250Z,15.00
2022-08-11T02:55:57.349Z,15.00
2022-08-11T02:58:34.670Z,15.00
2022-08-11T03:01:23.457Z,14.80
2022-08-11T03:04:03.732Z,14.80
2022-08-11T03:06:38.761Z,14.90
2022-08-11T03:09:10.818Z,14.80
2022-08-11T03:12:10.902Z,14.80
2022-08-11T03:15:06.698Z,14.70
2022-08-11T03:18:03.955Z,14.70
2022-08-11T03:20:39.305Z,14.60
2022-08-11T03:23:25.328Z,14.60
2022-08-11T03:26:24.186Z,14.50
2022-08-11T03:29:12.115Z,14.50
2022-08-11T03:32:00.551Z,14.60
2022-08-11T03:34:29.940Z,14.50
2022-08-11T03:37:37.831Z,14.50
2022-08-11T03:40:11.748Z,14.50
2022-08-11T03:42:51.213Z,14.50
2022-08-11T03:45:37.408Z,14.40
2022-08-11T03:48:39.522Z,14.40
2022-08-11T03:51:23.761Z,14.20
2022-08-11T03:54:06.486Z,14.30
2022-08-11T03:57:14.619Z,14.30
2022-08-11T04:00:11.155Z,14.40
2022-08-11T04:03:18.628Z,14.30
2022-08-11T04:06:15.847Z,14.30
2022-08-11T04:09:29.798Z,14.30
2022-08-11T04:12:35.639Z,14.40
2022-08-11T04:15:47.513Z,14.40
2022-08-11T04:18:40.911Z,14.30
2022-08-11T04:21:35.463Z,14.40
2022-08-11T04:24:38.652Z,14.50
2022-08-11T04:27:36.907Z,14.50
2022-08-11T04:30:05.451Z,14.50
2022-08-11T04:32:54.595Z,14.60
2022-08-11T04:35:48.599Z,14.60
2022-08-11T04:38:44.565Z,14.60
2022-08-11T04:42:16.531Z,14.60
2022-08-11T04:45:12.063Z,14.70
2022-08-11T04:48:46.166Z,14.80
2022-08-11T04:52:00.425Z,14.90
2022-08-11T04:55:23.711Z,14.90
2022-08-11T04:58:20.759Z,15.00
2022-08-11T05:01:21.716Z,15.10
2022-08-11T05:04:31.783Z,15.10
2022-08-11T05:07:36.106Z,15.30
2022-08-11T05:10:22.032Z,15.30
2022-08-11T05:13:22.430Z,15.40
2022-08-11T05:16:13.728Z,15.40
2022-08-11T05:19:08.759Z,15.50
2022-08-11T05:21:55.274Z,15.70
2022-08-11T05:24:48.391Z,15.70
2022-08-11T05:27:35.761Z,15.90
2022-08-11T05:30:23.622Z,15.80
2022-08-11T05:33:31.167Z,16.10
2022-08-11T05:36:24.701Z,16.20
2022-08-11T05:39:17.932Z,16.40
2022-08-11T05:42:03.017Z,16.40
2022-08-11T05:44:49.298Z,16.60
2022-08-11T05:47:44.903Z,16.80
2022-08-11T05:50:33.117Z,16.90
2022-08-11T05:53:19.892Z,17.00
2022-08-11T05:56:05.482Z,17.20
2022-08-11T05:58:38.230Z,17.40
2022-08-11T06:01:09.703Z,17.50
2022-08-11T06:03:58.298Z,17.70
2022-08-11T06:06:29.074Z,17.90
2022-08-11T06:08:57.725Z,19.10
2022-08-11T06:11:43.705Z,21.20
2022-08-11T06:14:11.605Z,22.90
2022-08-11T06:16:39.680Z,23.20
2022-08-11T06:19:06.607Z,24.60
2022-08-11T06:21:36.294Z,26.90
2022-08-11T06:24:11.371Z,27.80
2022-08-11T06:26:55.124Z,30.40
2022-08-11T06:29:38.006Z,30.30
2022-08-11T06:32:13.853Z,30.80
2022-08-11T06:35:06.685Z,33.30
2022-08-11T06:37:45.381Z,33.80
2022-08-11T06:40:25.914Z,33.50
2022-08-11T06:43:02.244Z,33.40
2022-08-11T06:45:48.772Z,35.20
2022-08-11T06:48:17.487Z,37.00
2022-08-11T06:51:10.248Z,36.20
2022-08-11T06:54:11.846Z,37.00
2022-08-11T06:57:28.248Z,38.70
2022-08-11T07:00:06.169Z,39.90
2022-08-11T07:02:49.114Z,38.80
2022-08-11T07:05:25.406Z,37.20
2022-08-11T07:08:46.670Z,39.50
2022-08-11T07:12:13.649Z,40.40
2022-08-11T07:15:08.625Z,41.50
2022-08-11T07:17:37.046Z,40.70
2022-08-11T07:20:25.342Z,41.70
2022-08-11T07:23:15.791Z,40.30
2022-08-11T07:26:03.255Z,41.10
2022-08-11T07:28:52.012Z,42.50
2022-08-11T07:31:29.816Z,43.30
2022-08-11T07:34:22.948Z,42.50
2022-08-11T07:36:55.330Z,42.90
2022-08-11T07:39:24.581Z,43.50
2022-08-11T07:41:54.894Z,43.60
2022-08-11T07:44:22.396Z,45.50
2022-08-11T07:47:09.318Z,43.30
2022-08-11T07:49:55.932Z,43.30
2022-08-11T07:52:31.102Z,45.60
2022-08-11T07:55:13.269Z,44.30
2022-08-11T07:58:16.785Z,42.70
2022-08-11T08:01:10.262Z,44.80
2022-08-11T08:03:57.544Z,45.90
2022-08-11T08:06:43.055Z,44.70
2022-08-11T08:09:30.103Z,45.30
2022-08-11T08:12:18.113Z,47.10
2022-08-11T08:15:03.537Z,48.10
2022-08-11T08:18:09.953Z,46.90
2022-08-11T08:20:51.653Z,45.40
2022-08-11T08:23:33.332Z,44.10
2022-08-11T08:26:04.439Z,44.60
2022-08-11T08:28:32.681Z,44.10
2022-08-11T08:31:00.255Z,46.10
2022-08-11T08:33:29.695Z,44.40
2022-08-11T08:36:15.510Z,45.00
2022-08-11T08:38:47.671Z,44.90
2022-08-11T08:41:20.132Z,43.90
2022-08-11T08:43:51.395Z,45.10
2022-08-11T08:46:22.097Z,43.70
2022-08-11T08:48:49.356Z,44.70
2022-08-11T08:52:01.151Z,42.90
2022-08-11T08:54:27.886Z,45.30
2022-08-11T08:56:58.013Z,45.60
2022-08-11T08:59:26.803Z,44.40
2022-08-11T09:02:13.955Z,45.70
2022-08-11T09:04:42.765Z,47.60
2022-08-11T09:07:12.579Z,45.90
2022-08-11T09:09:48.274Z,45.10
2022-08-11T09:12:17.393Z,44.30
2022-08-11T09:15:05.455Z,46.00
2022-08-11T09:17:40.087Z,44.50
2022-08-11T09:20:08.568Z,45.70
2022-08-11T09:23:35.224Z,46.80
2022-08-11T09:26:04.872Z,48.50
2022-08-11T09:28:31.999Z,45.40
2022-08-11T09:31:01.410Z,44.70
2022-08-11T09:33:29.836Z,46.70
2022-08-11T09:35:57.304Z,45.00
2022-08-11T09:38:49.389Z,44.50
2022-08-11T09:41:17.027Z,45.10
2022-08-11T09:44:04.816Z,44.10
2022-08-11T09:46:33.185Z,41.80
2022-08-11T09:49:02.167Z,42.60
2022-08-11T09:51:31.950Z,43.80
2022-08-11T09:54:02.821Z,43.60
2022-08-11T09:56:50.174Z,43.50
2022-08-11T09:59:18.622Z,42.80
2022-08-11T10:01:49.199Z,43.00
2022-08-11T10:04:18.215Z,44.00
2022-08-11T10:07:06.929Z,44.10
2022-08-11T10:09:40.866Z,42.10
2022-08-11T10:12:15.444Z,41.00
2022-08-11T10:15:05.349Z,41.60
2022-08-11T10:17:35.573Z,41.40
2022-08-11T10:20:07.766Z,43.70
2022-08-11T10:22:54.539Z,42.50
2022-08-11T10:25:40.749Z,41.70
2022-08-11T10:28:33.188Z,43.50
2022-08-11T10:31:17.444Z,41.10
2022-08-11T10:34:03.937Z,42.90
2022-08-11T10:36:33.598Z,42.20
2022-08-11T10:39:02.809Z,41.00
2022-08-11T10:42:08.619Z,41.30
2022-08-11T10:44:39.736Z,43.90
2022-08-11T10:47:26.404Z,44.10
2022-08-11T10:50:12.569Z,41.10
2022-08-11T10:52:58.946Z,42.70
2022-08-11T10:55:44.781Z,42.90
2022-08-11T10:58:30.423Z,40.30
2022-08-11T11:01:00.825Z,39.40
2022-08-11T11:03:34.646Z,40.20
2022-08-11T11:06:33.488Z,38.10
2022-08-11T11:09:07.749Z,39.50
2022-08-11T11:12:01.430Z,37.50
2022-08-11T11:14:56.508Z,38.20
2022-08-11T11:17:47.679Z,37.70
2022-08-11T11:20:35.881Z,37.50
2022-08-11T11:23:06.703Z,38.80
2022-08-11T11:26:10.070Z,39.40
2022-08-11T11:29:01.607Z,39.10
2022-08-11T11:32:05.101Z,38.70
2022-08-11T11:34:47.925Z,38.40
2022-08-11T11:37:22.921Z,37.90
2022-08-11T11:39:50.322Z,38.50
2022-08-11T11:42:18.577Z,38.30
2022-08-11T11:44:46.781Z,38.20
2022-08-11T11:47:15.572Z,38.30
2022-08-11T11:49:44.215Z,38.40
2022-08-11T11:52:19.976Z,37.90
2022-08-11T11:54:50.287Z,37.50
2022-08-11T11:57:37.028Z,37.50
2022-08-11T12:00:33.215Z,36.60
2022-08-11T12:03:02.945Z,37.20
2022-08-11T12:05:33.534Z,36.40
2022-08-11T12:08:17.385Z,36.40
2022-08-11T12:11:13.954Z,37.30
2022-08-11T12:13:42.403Z,38.20
2022-08-11T12:16:34.410Z,37.60
2022-08-11T12:19:01.851Z,37.60
2022-08-11T12:21:30.140Z,36.10
2022-08-11T12:24:18.859Z,36.80
2022-08-11T12:27:14.972Z,36.30
2022-08-11T12:29:45.249Z,36.10
2022-08-11T12:32:11.822Z,35.60
2022-08-11T12:34:38.400Z,36.10
2022-08-11T12:37:12.872Z,36.70
2022-08-11T12:40:16.835Z,36.30
2022-08-11T12:43:20.795Z,36.90
2022-08-11T12:45:54.118Z,38.30
2022-08-11T12:48:59.111Z,37.60
2022-08-11T12:52:12.035Z,36.90
2022-08-11T12:54:57.673Z,37.60
2022-08-11T12:57:45.554Z,37.20
2022-08-11T13:00:31.328Z,37.30
2022-08-11T13:03:17.063Z,37.80
2022-08-11T13:05:45.497Z,36.70
2022-08-11T13:08:15.196Z,36.80
2022-08-11T13:11:01.857Z,36.30
2022-08-11T13:13:53.471Z,36.40
2022-08-11T13:16:19.934Z,37.10
2022-08-11T13:18:46.970Z,37.80
2022-08-11T13:21:20.195Z,38.00
2022-08-11T13:24:01.294Z,38.00
2022-08-11T13:26:47.369Z,38.00
2022-08-11T13:29:22.274Z,37.40
2022-08-11T13:31:49.889Z,36.20
2022-08-11T13:34:20.005Z,37.00
2022-08-11T13:36:54.104Z,36.20
2022-08-11T13:39:24.012Z,36.40
2022-08-11T13:41:53.151Z,36.00
2022-08-11T13:44:25.270Z,37.30
2022-08-11T13:46:54.110Z,37.30
2022-08-11T13:49:21.382Z,36.70
2022-08-11T13:51:48.179Z,37.50
2022-08-11T13:54:27.459Z,37.70
2022-08-11T13:56:56.976Z,37.80
2022-08-11T13:59:29.945Z,37.90
2022-08-11T14:02:28.386Z,38.10
2022-08-11T14:05:09.952Z,37.80
2022-08-11T14:07:39.776Z,37.00
2022-08-11T14:10:08.898Z,37.20
2022-08-11T14:12:56.264Z,36.70
2022-08-11T14:15:28.919Z,36.30
2022-08-11T14:18:01.677Z,36.10
2022-08-11T14:20:50.796Z,37.10
2022-08-11T14:23:18.710Z,35.40
2022-08-11T14:26:05.424Z,36.50
2022-08-11T14:28:40.279Z,36.80
2022-08-11T14:31:13.351Z,36.40
2022-08-11T14:34:00.645Z,36.30
2022-08-11T14:36:30.634Z,37.10
2022-08-11T14:38:57.700Z,36.00
2022-08-11T14:42:11.323Z,36.00
2022-08-11T14:44:51.822Z,36.80
2022-08-11T14:47:32.550Z,36.70
2022-08-11T14:50:11.623Z,35.90
2022-08-11T14:52:43.498Z,35.10
2022-08-11T14:55:30.299Z,35.00
2022-08-11T14:57:57.458Z,35.60
2022-08-11T15:00:24.969Z,35.80
2022-08-11T15:03:10.354Z,36.10
2022-08-11T15:05:56.688Z,37.30
2022-08-11T15:08:51.880Z,37.20
2022-08-11T15:11:39.767Z,37.20
2022-08-11T15:14:08.787Z,36.70
2022-08-11T15:17:01.350Z,36.20
2022-08-11T15:19:36.670Z,35.60
2022-08-11T15:22:28.261Z,35.70
2022-08-11T15:24:55.004Z,35.90
2022-08-11T15:27:42.429Z,35.40
2022-08-11T15:30:32.847Z,35.80
2022-08-11T15:33:23.609Z,36.50
2022-08-11T15:36:09.923Z,35.10
2022-08-11T15:38:42.355Z,35.20
2022-08-11T15:41:29.752Z,35.10
2022-08-11T15:44:15.723Z,35.30
2022-08-11T15:46:49.090Z,35.00
2022-08-11T15:49:21.726Z,34.80
2022-08-11T15:52:03.452Z,33.90
2022-08-11T15:54:32.540Z,34.10
2022-08-11T15:57:02.189Z,33.80
2022-08-11T15:59:50.975Z,33.80
2022-08-11T16:02:28.086Z,33.40
2022-08-11T16:04:59.879Z,33.50
2022-08-11T16:07:29.277Z,33.40
2022-08-11T16:10:10.833Z,33.30
2022-08-11T16:13:05.824Z,33.30
2022-08-11T16:16:00.675Z,33.30
2022-08-11T16:18:40.710Z,33.20
2022-08-11T16:21:11.131Z,33.30
2022-08-11T16:23:59.979Z,33.80
2022-08-11T16:27:10.504Z,33.60
2022-08-11T16:29:16.485Z,33.10
2022-08-11T16:32:03.679Z,32.70
2022-08-11T16:34:50.077Z,32.40
2022-08-11T16:37:37.863Z,32.30
2022-08-11T16:40:05.872Z,32.70
2022-08-11T16:43:06.266Z,32.50
2022-08-11T16:45:58.773Z,32.20
2022-08-11T16:48:36.453Z,32.10
2022-08-11T16:51:10.425Z,32.20
2022-08-11T16:54:04.008Z,32.30
2022-08-11T16:56:34.222Z,32.40
2022-08-11T16:59:18.166Z,32.00
2022-08-11T17:01:53.057Z,31.60
2022-08-11T17:04:47.744Z,31.50
2022-08-11T17:07:50.043Z,31.60
2022-08-11T17:10:51.226Z,31.60
2022-08-11T17:13:33.660Z,31.10
2022-08-11T17:16:08.996Z,31.10
2022-08-11T17:18:58.383Z,30.70
2022-08-11T17:21:58.664Z,30.90
2022-08-11T17:24:28.303Z,30.90
2022-08-11T17:26:59.790Z,30.40
2022-08-11T17:29:54.859Z,30.30
2022-08-11T17:32:55.965Z,30.00
2022-08-11T17:35:33.475Z,29.90
2022-08-11T17:38:11.400Z,29.90
2022-08-11T17:40:40.443Z,29.80
2022-08-11T17:43:28.158Z,29.60
2022-08-11T17:46:15.034Z,29.60
2022-08-11T17:48:47.353Z,29.50
2022-08-11T17:51:38.595Z,29.40
2022-08-11T17:54:25.818Z,29.30
2022-08-11T17:57:20.412Z,29.20
2022-08-11T17:59:53.106Z,29.10
2022-08-11T18:02:43.348Z,28.90
2022-08-11T18:05:13.422Z,28.70
2022-08-11T18:08:01.989Z,28.60
2022-08-11T18:10:49.721Z,28.30
2022-08-11T18:13:40.554Z,28.10
2022-08-11T18:16:26.995Z,27.60
2022-08-11T18:19:12.638Z,27.70
2022-08-11T18:22:14.417Z,27.30
2022-08-11T18:25:06.674Z,27.10
2022-08-11T18:27:53.557Z,26.90
2022-08-11T18:30:39.368Z,26.80
2022-08-11T18:36:41.363Z,26.40
2022-08-11T18:39:31.124Z,26.00
2022-08-11T18:42:29.711Z,25.90
2022-08-11T18:45:18.999Z,25.50
2022-08-11T18:48:07.500Z,25.30
2022-08-11T18:51:29.717Z,24.90
2022-08-11T18:54:05.784Z,24.90
2022-08-11T18:56:51.583Z,24.70
2022-08-11T18:59:40.476Z,24.60
2022-08-11T19:02:27.191Z,24.50
2022-08-11T19:05:15.268Z,24.20
2022-08-11T19:08:04.252Z,24.10
2022-08-11T19:10:50.441Z,23.80
2022-08-11T19:13:37.051Z,23.80
2022-08-11T19:16:26.466Z,23.60
2022-08-11T19:19:13.119Z,23.50
2022-08-11T19:21:59.145Z,23.30
2022-08-11T19:24:45.646Z,23.20
2022-08-11T19:27:32.671Z,22.90
2022-08-11T19:30:19.038Z,22.60
2022-08-11T19:33:04.755Z,22.60
2022-08-11T19:35:50.768Z,22.50
2022-08-11T19:38:36.924Z,22.50
2022-08-11T19:41:56.192Z,22.40
2022-08-11T19:44:29.796Z,22.20
2022-08-11T19:47:15.023Z,22.10
2022-08-11T19:50:00.988Z,22.10
2022-08-11T19:52:48.480Z,22.00
2022-08-11T19:55:35.835Z,21.90
2022-08-11T19:58:22.060Z,21.80
2022-08-11T20:01:07.981Z,21.70
2022-08-11T20:03:53.266Z,21.50
2022-08-11T20:06:38.943Z,21.50
2022-08-11T20:09:26.806Z,21.40
2022-08-11T20:12:31.888Z,21.40
2022-08-11T20:15:17.971Z,21.30
2022-08-11T20:18:03.990Z,21.30
2022-08-11T20:20:50.389Z,21.10
2022-08-11T20:23:37.084Z,21.10
2022-08-11T20:26:32.024Z,21.00
2022-08-11T20:29:18.685Z,20.90
2022-08-11T20:32:08.469Z,20.80
2022-08-11T20:34:56.492Z,20.70
2022-08-11T20:37:48.840Z,20.70
2022-08-11T20:40:39.376Z,20.60
2022-08-11T20:44:06.738Z,20.50
2022-08-11T20:46:37.784Z,20.30
2022-08-11T20:49:24.532Z,20.20
2022-08-11T20:52:10.372Z,20.20
2022-08-11T20:54:57.123Z,20.20
2022-08-11T20:58:00.140Z,20.20
2022-08-11T21:00:49.085Z,20.30
2022-08-11T21:03:45.330Z,20.20
2022-08-11T21:06:44.988Z,20.10
2022-08-11T21:09:58.274Z,20.10
2022-08-11T21:12:38.119Z,20.20
2022-08-11T21:15:38.824Z,20.00
2022-08-11T21:18:33.437Z,20.10
2022-08-11T21:21:25.029Z,19.90
2022-08-11T21:24:12.711Z,19.90
2022-08-11T21:27:03.792Z,19.80
2022-08-11T21:29:52.382Z,19.80
2022-08-11T21:32:39.412Z,19.70
2022-08-11T21:35:27.153Z,19.70
2022-08-11T21:38:12.721Z,19.70
2022-08-11T21:41:00.855Z,19.60
2022-08-11T21:43:48.700Z,19.60
2022-08-11T21:46:37.450Z,19.50
2022-08-11T21:49:25.058Z,19.50
2022-08-11T21:52:10.081Z,19.50
2022-08-11T21:54:55.928Z,19.40
2022-08-11T21:57:48.370Z,19.30
2022-08-11T22:00:36.864Z,19.20
2022-08-11T22:03:23.852Z,19.30
2022-08-11T22:06:10.872Z,19.20
2022-08-11T22:08:55.762Z,19.20
2022-08-11T22:11:40.754Z,19.20
2022-08-11T22:14:25.931Z,19.10
2022-08-11T22:17:10.858Z,19.00
2022-08-11T22:19:57.784Z,19.00
2022-08-11T22:22:52.099Z,19.00
2022-08-11T22:25:49.915Z,18.90
2022-08-11T22:28:36.897Z,18.70
2022-08-11T22:31:23.981Z,18.70
2022-08-11T22:34:09.321Z,18.70
2022-08-11T22:36:55.413Z,18.60
2022-08-11T22:39:42.017Z,18.60
2022-08-11T22:42:33.445Z,18.40
2022-08-11T22:45:19.736Z,18.30
2022-08-11T22:48:06.746Z,18.10
2022-08-11T22:50:53.591Z,18.20
2022-08-11T22:53:57.441Z,18.10
2022-08-11T22:56:45.246Z,18.20
2022-08-11T22:59:31.715Z,18.20
2022-08-11T23:02:17.037Z,18.10
2022-08-11T23:05:04.051Z,18.00
2022-08-11T23:07:51.763Z,18.00
2022-08-11T23:10:39.081Z,18.00
2022-08-11T23:13:26.223Z,17.90
2022-08-11T23:16:13.622Z,17.90
2022-08-11T23:18:59.973Z,17.80
2022-08-11T23:21:46.794Z,17.70
2022-08-11T23:24:32.552Z,17.60
2022-08-11T23:27:18.822Z,17.60
2022-08-11T23:30:05.894Z,17.60
2022-08-11T23:32:51.036Z,17.50
2022-08-11T23:35:53.694Z,17.50
2022-08-11T23:38:41.922Z,17.30
2022-08-11T23:41:27.098Z,17.30
2022-08-11T23:44:13.008Z,17.30
2022-08-11T23:46:59.073Z,17.20
2022-08-11T23:49:45.057Z,17.20
2022-08-11T23:52:30.993Z,17.20
2022-08-11T23:55:16.911Z,17.10
2022-08-11T23:58:02.355Z,17.10
